Time,TemperatureF,DewpointF,PressureIn,WindDirection,WindDirectionDegrees,WindSpeedMPH,WindSpeedGustMPH,Humidity,HourlyPrecipIn,Conditions,Clouds,dailyrainin,SoftwareType,DateUTC
2013-03-29 00:11:00,33.9,31.0,30.06,NNE,30,0.0,1.0,88,0.00,,,0.00,weatherlink.com 1.10,2013-03-29 04:11:00,
2013-03-29 00:26:00,33.9,31.0,30.05,NNE,30,0.0,1.0,90,0.00,,,0.00,weatherlink.com 1.10,2013-03-29 04:26:00,
2013-03-29 00:41:00,34.0,31.0,30.06,NNE,30,0.0,1.0,90,0.00,,,0.00,weatherlink.com 1.10,2013-03-29 04:41:00,
2013-03-29 00:56:00,34.4,31.0,30.06,NNE,29,0.0,0.0,87,0.00,,,0.00,weatherlink.com 1.10,2013-03-29 04:56:00,
2013-03-29 01:11:00,34.4,31.0,30.06,NNE,30,0.0,0.0,88,0.00,,,0.00,weatherlink.com 1.10,2013-03-29 05:11:00,
2013-03-29 01:26:00,34.3,31.0,30.06,NNE,30,0.0,0.0,88,0.00,,,0.00,weatherlink.com 1.10,2013-03-29 05:26:00,
2013-03-29 01:41:00,34.4,32.0,30.06,NNE,30,0.0,1.0,89,0.00,,,0.00,weatherlink.com 1.10,2013-03-29 05:41:00,
2013-03-29 01:56:00,34.9,32.0,30.05,NNE,29,0.0,1.0,88,0.00,,,0.00,weatherlink.com 1.10,2013-03-29 05:56:00,
2013-03-29 02:11:00,35.0,32.0,30.05,NNE,30,0.0,1.0,87,0.00,,,0.00,weatherlink.com 1.10,2013-03-29 06:11:00,
2013-03-29 02:26:00,35.1,32.0,30.05,NNE,30,0.0,0.0,88,0.00,,,0.00,weatherlink.com 1.10,2013-03-29 06:26:00,
2013-03-29 02:41:00,35.1,32.0,30.05,NNE,30,0.0,0.0,89,0.00,,,0.00,weatherlink.com 1.10,2013-03-29 06:41:00,
2013-03-29 03:11:00,35.2,33.0,30.05,NNE,29,0.0,0.0,90,0.00,,,0.00,weatherlink.com 1.10,2013-03-29 07:11:00,
2013-03-29 03:26:00,34.9,33.0,30.05,NNE,30,0.0,1.0,92,0.00,,,0.00,weatherlink.com 1.10,2013-03-29 07:26:00,
2013-03-29 03:41:00,34.8,33.0,30.04,NNE,30,0.0,1.0,93,0.00,,,0.00,weatherlink.com 1.10,2013-03-29 07:41:00,
2013-03-29 04:11:00,34.4,33.0,30.05,NNE,30,0.0,0.0,94,0.00,,,0.00,weatherlink.com 1.10,2013-03-29 08:11:00,
2013-03-29 04:26:00,34.3,33.0,30.05,NNE,29,0.0,0.0,95,0.00,,,0.00,weatherlink.com 1.10,2013-03-29 08:26:00,
2013-03-29 04:56:00,34.1,33.0,30.05,NNE,30,0.0,0.0,95,0.00,,,0.00,weatherlink.com 1.10,2013-03-29 08:56:00,
2013-03-29 05:11:00,34.0,33.0,30.05,NNE,30,0.0,0.0,95,0.00,,,0.00,weatherlink.com 1.10,2013-03-29 09:11:00,
2013-03-29 05:26:00,33.9,33.0,30.05,NNE,30,0.0,0.0,96,0.00,,,0.00,weatherlink.com 1.10,2013-03-29 09:26:00,
2013-03-29 05:41:00,33.9,33.0,30.05,NNE,30,0.0,0.0,96,0.00,,,0.00,weatherlink.com 1.10,2013-03-29 09:41:00,
2013-03-29 06:11:00,33.9,33.0,30.05,NNE,30,0.0,0.0,96,0.00,,,0.00,weatherlink.com 1.10,2013-03-29 10:11:00,
2013-03-29 06:26:00,33.9,33.0,30.05,NNE,29,0.0,0.0,97,0.00,,,0.00,weatherlink.com 1.10,2013-03-29 10:26:00,
2013-03-29 06:41:00,33.9,33.0,30.05,NNE,30,0.0,1.0,97,0.00,,,0.00,weatherlink.com 1.10,2013-03-29 10:41:00,
2013-03-29 06:56:00,34.1,33.0,30.05,SSE,150,0.0,1.0,97,0.00,,,0.00,weatherlink.com 1.10,2013-03-29 10:56:00,
2013-03-29 07:11:00,34.1,33.0,30.06,SSE,149,0.0,0.0,97,0.00,,,0.00,weatherlink.com 1.10,2013-03-29 11:11:00,
2013-03-29 07:26:00,34.2,34.0,30.06,SSE,149,0.0,0.0,97,0.00,,,0.00,weatherlink.com 1.10,2013-03-29 11:26:00,
2013-03-29 07:41:00,34.4,34.0,30.06,SSE,150,0.0,0.0,97,0.00,,,0.00,weatherlink.com 1.10,2013-03-29 11:41:00,
2013-03-29 07:56:00,34.6,34.0,30.07,SSE,149,0.0,0.0,97,0.00,,,0.00,weatherlink.com 1.10,2013-03-29 11:56:00,
2013-03-29 08:11:00,34.9,34.0,30.07,SSE,149,0.0,0.0,97,0.00,,,0.00,weatherlink.com 1.10,2013-03-29 12:11:00,
2013-03-29 08:26:00,35.2,34.0,30.06,SSE,149,0.0,1.0,96,0.00,,,0.00,weatherlink.com 1.10,2013-03-29 12:26:00,
2013-03-29 08:41:00,35.7,34.0,30.06,SSE,149,0.0,1.0,95,0.00,,,0.00,weatherlink.com 1.10,2013-03-29 12:41:00,
2013-03-29 08:57:00,36.3,35.0,30.06,SSE,149,0.0,0.0,94,0.00,,,0.00,weatherlink.com 1.10,2013-03-29 12:57:00,
2013-03-29 09:12:00,36.4,34.0,30.06,East,96,0.0,1.0,92,0.00,,,0.00,weatherlink.com 1.10,2013-03-29 13:12:00,
2013-03-29 09:27:00,36.6,35.0,30.06,East,97,0.0,1.0,92,0.00,,,0.00,weatherlink.com 1.10,2013-03-29 13:27:00,
2013-03-29 09:42:00,36.7,34.0,30.06,SW,217,0.0,1.0,91,0.00,,,0.00,weatherlink.com 1.10,2013-03-29 13:42:00,
2013-03-29 09:57:00,37.0,34.0,30.06,NE,51,0.0,2.0,90,0.00,,,0.00,weatherlink.com 1.10,2013-03-29 13:57:00,
2013-03-29 10:12:00,37.3,34.0,30.07,East,92,0.0,2.0,89,0.00,,,0.00,weatherlink.com 1.10,2013-03-29 14:12:00,
2013-03-29 10:27:00,37.9,35.0,30.06,West,281,0.0,2.0,88,0.00,,,0.00,weatherlink.com 1.10,2013-03-29 14:27:00,
2013-03-29 10:42:00,39.2,35.0,30.06,ENE,68,0.0,2.0,86,0.00,,,0.00,weatherlink.com 1.10,2013-03-29 14:42:00,
2013-03-29 10:57:00,39.7,36.0,30.07,SE,131,0.0,2.0,85,0.00,,,0.00,weatherlink.com 1.10,2013-03-29 14:57:00,
2013-03-29 11:12:00,40.1,35.0,30.06,West,263,0.0,3.0,83,0.00,,,0.00,weatherlink.com 1.10,2013-03-29 15:12:00,
2013-03-29 11:27:00,40.3,35.0,30.07,NNW,337,0.0,2.0,82,0.00,,,0.00,weatherlink.com 1.10,2013-03-29 15:27:00,
2013-03-29 11:42:00,40.0,36.0,30.07,WNW,297,0.0,2.0,85,0.00,,,0.00,weatherlink.com 1.10,2013-03-29 15:42:00,
2013-03-29 11:57:00,41.2,36.0,30.06,NE,40,1.0,1.0,82,0.00,,,0.00,weatherlink.com 1.10,2013-03-29 15:57:00,
2013-03-29 12:12:00,41.0,35.0,30.06,SSE,159,0.0,2.0,80,0.00,,,0.00,weatherlink.com 1.10,2013-03-29 16:12:00,
2013-03-29 12:27:00,41.2,35.0,30.06,West,279,0.0,3.0,79,0.00,,,0.00,weatherlink.com 1.10,2013-03-29 16:27:00,
2013-03-29 12:42:00,41.6,35.0,30.05,SSE,164,2.0,5.0,77,0.00,,,0.00,weatherlink.com 1.10,2013-03-29 16:42:00,
2013-03-29 12:57:00,42.9,34.0,30.05,NE,53,1.0,4.0,72,0.00,,,0.00,weatherlink.com 1.10,2013-03-29 16:57:00,
2013-03-29 13:12:00,42.8,35.0,30.04,SSW,192,1.0,3.0,74,0.00,,,0.00,weatherlink.com 1.10,2013-03-29 17:12:00,
2013-03-29 13:27:00,43.3,34.0,30.03,NE,49,2.0,6.0,70,0.00,,,0.00,weatherlink.com 1.10,2013-03-29 17:27:00,
2013-03-29 13:42:00,41.5,34.0,30.03,NNE,32,1.0,1.0,74,0.00,,,0.00,weatherlink.com 1.10,2013-03-29 17:42:00,
2013-03-29 13:57:00,43.0,33.0,30.02,NNE,23,0.0,3.0,69,0.00,,,0.00,weatherlink.com 1.10,2013-03-29 17:57:00,
2013-03-29 14:13:00,43.8,33.0,30.02,SE,145,1.0,4.0,67,0.00,,,0.00,weatherlink.com 1.10,2013-03-29 18:13:00,
2013-03-29 14:27:00,44.3,32.0,30.02,ENE,67,0.0,3.0,63,0.00,,,0.00,weatherlink.com 1.10,2013-03-29 18:27:00,
2013-03-29 14:42:00,43.6,33.0,30.01,North,5,0.0,3.0,66,0.00,,,0.00,weatherlink.com 1.10,2013-03-29 18:42:00,
2013-03-29 14:57:00,44.0,31.0,30.01,SE,128,0.0,5.0,61,0.00,,,0.00,weatherlink.com 1.10,2013-03-29 18:57:00,
2013-03-29 15:12:00,43.2,31.0,30.01,NNE,27,0.0,2.0,62,0.00,,,0.00,weatherlink.com 1.10,2013-03-29 19:12:00,
2013-03-29 15:27:00,41.7,31.0,30.01,WNW,291,0.0,3.0,66,0.00,,,0.00,weatherlink.com 1.10,2013-03-29 19:27:00,
2013-03-29 15:42:00,41.1,32.0,30.01,WSW,253,0.0,2.0,69,0.00,,,0.00,weatherlink.com 1.10,2013-03-29 19:42:00,
2013-03-29 15:57:00,41.5,31.0,30.01,NE,46,1.0,3.0,67,0.00,,,0.00,weatherlink.com 1.10,2013-03-29 19:57:00,
2013-03-29 16:12:00,41.9,30.0,30.01,NE,36,0.0,3.0,64,0.00,,,0.00,weatherlink.com 1.10,2013-03-29 20:12:00,
2013-03-29 16:27:00,41.1,31.0,30.01,NNW,344,0.0,1.0,67,0.00,,,0.00,weatherlink.com 1.10,2013-03-29 20:27:00,
2013-03-29 16:42:00,41.5,31.0,30.00,SW,214,0.0,1.0,66,0.00,,,0.00,weatherlink.com 1.10,2013-03-29 20:42:00,
2013-03-29 16:57:00,41.2,31.0,30.01,SW,214,0.0,1.0,66,0.00,,,0.00,weatherlink.com 1.10,2013-03-29 20:57:00,
2013-03-29 17:12:00,40.1,31.0,30.01,West,259,0.0,1.0,69,0.00,,,0.00,weatherlink.com 1.10,2013-03-29 21:12:00,
2013-03-29 17:27:00,39.1,31.0,30.01,West,259,0.0,0.0,74,0.00,,,0.00,weatherlink.com 1.10,2013-03-29 21:27:00,
2013-03-29 17:42:00,39.3,31.0,30.02,ENE,61,0.0,1.0,73,0.00,,,0.00,weatherlink.com 1.10,2013-03-29 21:42:00,
2013-03-29 17:57:00,39.5,31.0,30.02,SSE,154,0.0,0.0,71,0.00,,,0.00,weatherlink.com 1.10,2013-03-29 21:57:00,
2013-03-29 18:12:00,39.6,31.0,30.02,WSW,238,0.0,2.0,70,0.00,,,0.00,weatherlink.com 1.10,2013-03-29 22:12:00,
2013-03-29 18:27:00,39.2,30.0,30.02,WNW,301,0.0,1.0,70,0.00,,,0.00,weatherlink.com 1.10,2013-03-29 22:27:00,
2013-03-29 18:42:00,38.5,30.0,30.03,NNE,30,0.0,2.0,71,0.00,,,0.00,weatherlink.com 1.10,2013-03-29 22:42:00,
2013-03-29 18:57:00,38.0,30.0,30.03,NNE,30,0.0,0.0,73,0.00,,,0.00,weatherlink.com 1.10,2013-03-29 22:57:00,
2013-03-29 19:12:00,37.8,30.0,30.03,NW,322,0.0,1.0,74,0.00,,,0.00,weatherlink.com 1.10,2013-03-29 23:12:00,
2013-03-29 19:42:00,37.0,30.0,30.04,NE,36,0.0,2.0,76,0.00,,,0.00,weatherlink.com 1.10,2013-03-29 23:42:00,
2013-03-29 19:57:00,36.7,30.0,30.04,NE,36,0.0,1.0,76,0.00,,,0.00,weatherlink.com 1.10,2013-03-29 23:57:00,
2013-03-29 20:12:00,36.6,30.0,30.05,NE,36,0.0,0.0,77,0.00,,,0.00,weatherlink.com 1.10,2013-03-30 00:12:00,
2013-03-29 20:28:00,36.2,30.0,30.05,NE,38,0.0,0.0,79,0.00,,,0.00,weatherlink.com 1.10,2013-03-30 00:28:00,
2013-03-29 20:43:00,36.0,29.0,30.06,NE,36,0.0,0.0,77,0.00,,,0.00,weatherlink.com 1.10,2013-03-30 00:43:00,
2013-03-29 20:58:00,35.9,30.0,30.06,NE,36,0.0,0.0,78,0.00,,,0.00,weatherlink.com 1.10,2013-03-30 00:58:00,
2013-03-29 21:13:00,36.3,30.0,30.06,East,97,0.0,1.0,78,0.00,,,0.00,weatherlink.com 1.10,2013-03-30 01:13:00,
2013-03-29 21:28:00,35.8,30.0,30.06,East,97,0.0,0.0,79,0.00,,,0.00,weatherlink.com 1.10,2013-03-30 01:28:00,
2013-03-29 21:43:00,35.8,30.0,30.06,WNW,286,0.0,1.0,80,0.00,,,0.00,weatherlink.com 1.10,2013-03-30 01:43:00,
2013-03-29 21:58:00,35.8,30.0,30.06,WNW,286,0.0,1.0,80,0.00,,,0.00,weatherlink.com 1.10,2013-03-30 01:58:00,
2013-03-29 22:13:00,35.5,30.0,30.06,WNW,286,0.0,0.0,80,0.00,,,0.00,weatherlink.com 1.10,2013-03-30 02:13:00,
2013-03-29 22:28:00,35.5,30.0,30.06,South,183,0.0,2.0,81,0.00,,,0.00,weatherlink.com 1.10,2013-03-30 02:28:00,
2013-03-29 22:43:00,35.3,30.0,30.06,WSW,242,0.0,3.0,81,0.00,,,0.00,weatherlink.com 1.10,2013-03-30 02:43:00,
2013-03-29 22:58:00,35.0,30.0,30.06,WSW,242,0.0,0.0,82,0.00,,,0.00,weatherlink.com 1.10,2013-03-30 02:58:00,
2013-03-29 23:13:00,35.1,30.0,30.06,WSW,257,0.0,1.0,83,0.00,,,0.00,weatherlink.com 1.10,2013-03-30 03:13:00,
2013-03-29 23:28:00,35.0,31.0,30.06,SSW,213,0.0,1.0,84,0.00,,,0.00,weatherlink.com 1.10,2013-03-30 03:28:00,
2013-03-29 23:43:00,34.9,31.0,30.06,WSW,252,0.0,0.0,86,0.00,,,0.00,weatherlink.com 1.10,2013-03-30 03:43:00,
2013-03-29 23:58:00,34.6,31.0,30.06,WSW,255,0.0,1.0,87,0.00,,,0.00,weatherlink.com 1.10,2013-03-30 03:58:00,